Main page
METAR-TAF:

METAR-TAF

Airports :

Al Maktoum International Airport

Dubai, United Arab Emirates

latitude: 24-53-49N, longitude: 55-09-40E, elevation: 35 m

Current weather observation

The report was made 57 minutes ago, at 01:00 UTC
Wind 5 kt from the South
Temperature 22°C
Humidity 78%
Pressure 1016 hPa
Visibility 10 km or more
Few clouds at a height of 3500 ft

METAR: OMDW 190100Z 18005KT 9999 FEW035 22/18 Q1016 NOSIG

Time: 05:57 (01:57 UTC)

Forecast

The report was made 3 hours and 4 minutes ago, at 22:53 UTC
Forecast valid from 19 at 00 UTC to 20 at 06 UTC
Wind 5 kt from the Southwest
Visibility: 8000 m
Few clouds at a height of 3500 ft
Becoming
from 19 at 05 UTC to 19 at 07 UTC
Wind 12 kt from the West
Becoming
from 19 at 15 UTC to 19 at 17 UTC
Wind 5 kt from the South
Probability 30%
from 20 at 00 UTC to 20 at 05 UTC
Visibility: 4000 m
haze

TAF: OMDW 182253Z 1900/2006 22005KT 8000 FEW035 BECMG 1905/1907 28012KT BECMG 1915/1917 19005KT PROB30 2000/2005 4000 HZ

Weather observations and forecasts of more than 4000 airports (METAR and TAF reports).

The available stations are represented by yellow and red dots on the map.

Hover mouse over dot to see the name of the station.

Then click to see weather observations and forecasts.

To change the map : click on the green buttons with a black cross to zoom in, on the green button with a dash to zoom out, or on the green arrows for adjacent maps.


METAR-TAF: